Date,TemperatureHighF,TemperatureAvgF,TemperatureLowF,DewpointHighF,DewpointAvgF,DewpointLowF,HumidityHigh,HumidityAvg,HumidityLow,PressureMaxIn,PressureMinIn,WindSpeedMaxMPH,WindSpeedAvgMPH,GustSpeedMaxMPH,PrecipitationSumIn
2013-1-1,27.5,11.2,-0.6,24.7,8.7,-3.6,95,89,84,30.35,30.06,21,4,22,0.00
2013-1-2,28.8,24.1,16.5,26.0,21.2,12.9,96,88,84,30.40,30.06,27,15,30,0.00
2013-1-3,26.5,19.6,14.9,17.0,13.8,10.4,89,79,63,30.40,30.13,19,10,22,0.00
2013-1-4,26.0,17.5,11.2,16.0,11.3,7.7,88,76,62,30.24,30.08,9,4,10,0.02
2013-1-5,20.2,13.2,7.6,16.7,9.9,4.4,90,87,80,30.31,30.05,34,10,39,0.00
2013-1-6,23.5,15.1,6.7,21.0,12.0,4.2,100,87,79,30.31,29.91,16,7,19,0.00
2013-1-7,31.4,25.7,14.4,23.4,19.7,12.1,93,78,69,30.00,29.88,22,8,22,0.00
2013-1-8,36.4,26.7,12.8,30.2,22.5,10.7,93,84,71,30.03,29.73,36,12,37,0.03
2013-1-9,33.5,25.4,16.5,26.1,19.9,10.7,89,79,72,30.20,29.92,23,9,28,0.00
2013-1-10,40.6,33.4,26.5,31.5,28.4,23.6,92,82,62,29.92,29.49,26,9,27,0.00
2013-1-11,30.0,13.6,3.0,28.1,11.3,0.0,100,91,87,29.88,29.50,27,16,28,0.00
2013-1-12,3.7,0.8,-3.2,0.6,-3.9,-9.1,87,80,74,30.38,29.88,36,16,38,0.00
2013-1-13,5.6,-0.9,-5.5,0.9,-5.3,-10.4,85,81,75,30.45,30.34,21,6,21,0.00
2013-1-14,9.5,1.6,-6.2,3.4,-2.2,-9.5,87,83,75,30.46,30.26,11,4,13,0.00
2013-1-15,37.0,20.8,6.5,33.0,16.5,1.9,95,83,72,30.26,29.76,30,9,32,0.02
2013-1-16,37.2,26.6,16.2,32.7,23.0,12.8,93,86,78,30.28,29.79,26,10,28,0.12
2013-1-17,28.6,24.1,22.1,25.7,20.9,16.8,94,88,75,30.48,29.99,18,5,21,0.00
2013-1-18,39.0,33.3,27.3,31.8,28.0,22.6,93,81,73,29.99,29.77,15,6,16,0.00
2013-1-19,35.4,14.6,-1.5,31.5,9.3,-6.4,87,79,69,30.47,29.79,46,18,52,0.00
2013-1-20,3.8,-2.5,-11.5,1.0,-8.4,-17.8,92,75,63,30.68,30.45,37,14,37,0.00
2013-1-21,1.7,-6.0,-13.8,-5.1,-12.0,-19.4,79,75,69,30.64,30.50,20,9,20,0.00
2013-1-22,12.3,5.3,-1.9,10.3,1.4,-6.6,92,83,74,30.50,30.28,12,3,14,0.00
2013-1-23,9.2,1.3,-4.0,6.4,-3.6,-9.4,88,79,71,30.72,30.33,23,10,25,0.00
2013-1-24,22.5,3.7,-5.2,18.9,-1.0,-11.0,89,80,75,30.68,30.14,29,14,29,0.00
2013-1-25,22.5,6.2,-1.4,19.0,0.2,-7.1,86,76,59,30.40,30.17,28,11,29,0.00
2013-1-26,25.9,13.7,0.8,20.2,9.7,-4.3,89,84,75,30.27,30.02,17,8,19,0.05
2013-1-27,29.3,17.5,9.2,22.6,13.6,6.4,90,85,70,30.03,29.85,13,4,13,0.00
2013-1-28,31.5,25.9,19.0,28.1,23.6,16.4,95,91,85,29.92,29.81,8,3,10,0.00
2013-1-29,23.1,16.8,7.0,21.4,14.6,3.2,94,91,84,30.18,29.79,29,6,32,0.00
2013-1-30,6.9,-5.7,-12.8,2.7,-11.2,-18.5,84,77,69,30.26,30.09,28,15,30,0.00
2013-1-31,-9.2,-14.2,-19.0,-15.2,-19.7,-24.4,92,75,71,30.60,30.26,27,12,31,0.01
2013-2-1,19.8,7.1,-15.0,18.5,3.5,-19.6,96,85,79,30.48,30.16,19,7,22,0.00
2013-2-2,33.4,13.3,3.0,30.4,9.6,-0.4,94,85,76,30.30,30.05,48,13,50,0.00
2013-2-3,21.1,15.7,9.1,16.9,12.3,6.0,90,86,80,30.28,29.97,14,6,16,0.00
2013-2-4,35.6,22.1,9.1,30.6,19.0,6.0,93,88,80,30.12,29.74,19,7,21,0.01
2013-2-5,33.4,26.3,19.7,28.4,22.1,15.5,95,84,75,30.05,29.75,26,9,27,0.00
2013-2-6,37.4,25.1,18.0,30.9,22.0,16.3,94,88,76,30.17,29.83,21,9,21,0.01
2013-2-7,23.3,18.5,14.5,21.8,16.8,12.6,94,93,91,30.31,30.17,16,8,17,0.00
2013-2-8,25.6,22.4,18.5,24.4,21.1,16.8,100,94,93,30.27,30.03,16,4,18,0.07
2013-2-9,27.1,23.1,19.5,25.9,21.9,18.0,100,95,94,30.03,29.92,5,1,5,0.00
2013-2-10,26.3,20.9,17.1,25.1,19.1,14.8,96,93,88,30.06,29.83,35,10,39,0.01
2013-2-11,23.1,19.6,17.1,18.5,16.6,14.6,93,88,81,30.16,29.96,29,11,30,0.00
2013-2-12,35.3,27.5,17.4,28.8,22.4,13.5,88,81,74,30.02,29.87,19,8,21,0.00
2013-2-13,35.7,31.3,27.8,32.8,28.6,24.2,96,90,82,29.87,29.65,25,8,29,0.03
2013-2-14,32.4,22.5,15.9,30.5,18.6,12.6,96,85,75,30.37,29.84,29,12,30,0.01
2013-2-15,20.9,16.6,14.4,15.0,12.6,10.6,91,84,76,30.51,30.23,19,7,19,0.00
2013-2-16,36.4,26.5,16.5,29.4,22.9,12.8,93,86,73,30.23,29.87,11,5,12,0.00
2013-2-17,41.3,33.1,25.1,34.2,29.1,23.5,95,85,70,29.87,29.53,29,9,32,0.01
2013-2-18,29.2,10.5,-3.7,26.8,6.6,-8.6,92,84,76,30.42,29.65,37,21,38,0.00
2013-2-19,2.4,-6.1,-14.6,-5.5,-11.9,-19.5,92,75,65,30.64,30.42,16,8,21,0.00
2013-2-20,12.3,2.0,-10.0,7.9,-3.0,-14.0,87,79,69,30.59,30.31,31,15,35,0.00
2013-2-21,21.5,15.1,11.3,14.4,10.9,7.7,92,84,67,30.35,30.23,20,11,21,0.00
2013-2-22,26.6,16.3,9.2,19.0,11.4,5.6,89,81,71,30.23,29.95,10,5,13,0.00
2013-2-23,34.7,19.5,8.2,27.9,15.9,5.9,91,86,73,29.95,29.83,14,8,14,0.00
2013-2-24,30.8,25.0,18.6,25.3,21.4,14.6,94,86,76,30.17,29.94,23,9,25,0.00
2013-2-25,43.1,28.2,14.9,27.9,20.5,12.2,90,74,48,30.16,29.96,21,7,23,0.12
2013-2-26,41.2,29.4,18.8,28.7,22.8,15.6,91,77,54,30.19,29.96,21,6,23,0.00
2013-2-27,28.9,25.7,19.9,26.4,22.8,17.2,95,89,81,30.39,30.18,20,11,23,0.00
2013-2-28,30.1,23.0,19.9,22.8,19.1,16.4,91,85,72,30.41,30.35,12,5,14,0.00
2013-3-1,29.2,22.0,18.0,23.9,19.0,15.6,92,88,75,30.49,30.34,13,6,14,0.00
2013-3-2,44.2,31.3,22.9,34.5,27.1,21.0,100,85,67,30.34,30.02,15,6,18,0.00
2013-3-3,38.6,31.1,26.0,33.3,28.8,24.3,96,91,79,30.02,29.67,20,11,21,0.14
2013-3-4,32.9,26.8,18.9,31.6,24.8,17.0,97,92,86,30.21,29.67,30,12,33,0.03
2013-3-5,19.4,14.6,3.8,16.9,11.7,1.1,92,88,80,30.55,30.21,24,11,28,0.00
2013-3-6,18.8,9.8,1.1,14.9,6.9,-1.9,100,88,83,30.54,30.25,23,8,25,0.00
2013-3-7,27.5,21.6,13.2,24.5,18.9,10.6,92,89,85,30.28,30.15,23,9,26,0.01
2013-3-8,31.0,23.3,15.3,25.5,20.7,13.4,94,90,77,30.31,30.10,14,4,15,0.04
2013-3-9,31.1,22.9,13.2,27.4,20.1,10.0,95,89,80,30.26,30.00,28,11,29,0.01
2013-3-10,25.1,15.2,7.5,17.3,10.9,4.7,90,83,68,30.43,30.20,24,8,26,0.00
2013-3-11,35.9,24.1,11.5,28.0,19.2,9.1,91,82,64,30.20,29.95,38,16,39,0.26
2013-3-12,24.5,17.8,6.8,22.2,13.1,2.6,92,82,66,30.44,30.05,39,15,39,0.07
2013-3-13,44.1,23.8,4.1,29.7,16.4,0.4,90,75,50,30.44,30.05,20,8,22,0.00
2013-3-14,57.3,39.2,25.3,43.9,33.3,21.6,93,80,58,30.16,30.03,23,7,23,0.00
2013-3-15,25.4,15.6,3.7,21.7,12.2,0.0,92,86,83,30.30,29.99,24,11,24,0.00
2013-3-16,17.1,6.6,-2.3,11.3,2.3,-5.5,88,82,74,30.39,30.29,18,6,18,0.00
2013-3-17,23.9,15.8,7.8,22.2,12.7,3.5,94,87,82,30.32,29.62,35,16,35,0.00
2013-3-18,18.9,9.4,3.6,14.8,3.0,-1.2,87,75,61,30.18,29.68,42,20,48,0.00
2013-3-19,15.4,8.5,1.0,9.8,3.3,-3.1,86,79,67,30.58,30.16,28,10,30,0.00
2013-3-20,23.0,10.0,-0.3,12.4,3.7,-3.6,88,76,59,30.58,30.23,21,7,23,0.00
2013-3-21,23.7,11.7,1.6,14.6,6.1,-2.9,84,78,57,30.24,30.08,25,14,27,0.00
2013-3-22,23.6,15.2,9.4,20.2,11.7,5.6,92,86,82,30.24,30.12,18,10,20,0.00
2013-3-23,22.1,17.8,15.3,17.0,14.4,12.1,92,86,74,30.35,30.24,18,8,19,0.21
2013-3-24,24.7,17.5,11.9,19.7,13.9,9.5,92,86,77,30.45,30.30,23,10,23,0.00
2013-3-25,25.4,13.7,2.4,18.1,9.6,-0.3,90,84,71,30.54,30.45,14,6,16,0.00
2013-3-26,30.5,17.1,4.7,22.1,12.7,1.9,90,83,66,30.47,30.29,19,8,19,0.00
2013-3-27,35.7,21.4,9.4,29.2,17.9,7.0,93,86,76,30.34,30.26,15,8,15,0.02
2013-3-28,42.0,27.7,16.8,35.5,24.8,14.9,96,89,74,30.30,30.24,14,6,15,0.00
2013-3-29,45.2,31.0,19.8,38.6,27.9,18.1,96,89,72,30.28,30.06,20,5,21,0.00
2013-3-30,50.6,36.7,28.4,36.9,31.2,25.3,97,82,51,30.10,30.03,30,10,34,0.01
2013-3-31,32.3,25.8,15.4,25.9,19.1,11.3,87,76,52,30.36,30.06,22,9,28,0.00
2013-4-1,35.7,22.4,11.8,19.2,13.7,9.2,90,72,41,30.43,30.35,14,4,16,0.00
2013-4-2,40.1,27.1,17.2,24.3,17.9,13.1,92,69,44,30.40,30.27,23,9,23,0.00
2013-4-3,62.9,38.0,24.8,36.3,27.7,19.4,88,69,34,30.27,29.92,33,14,36,0.00
2013-4-4,39.9,31.5,23.9,25.9,23.8,21.2,90,74,52,30.31,30.17,18,10,22,0.00
2013-4-5,45.6,32.1,23.0,29.3,23.2,15.7,92,72,39,30.25,29.77,28,15,30,0.00
2013-4-6,43.6,33.8,28.1,37.4,30.0,26.8,97,86,69,29.94,29.72,26,10,27,0.00
2013-4-7,48.4,35.4,30.0,38.9,31.9,27.9,95,87,68,29.94,29.73,19,8,20,0.07
2013-4-8,31.4,23.1,13.4,30.1,20.7,8.7,97,90,80,30.44,29.78,28,15,30,0.00
2013-4-9,28.5,18.5,9.9,18.5,12.3,6.0,92,77,61,30.58,30.42,25,12,28,0.00
2013-4-10,37.0,27.9,21.2,22.9,19.4,16.8,88,72,48,30.53,30.14,19,8,19,0.00
2013-4-11,37.6,29.7,24.6,26.6,22.8,17.1,92,76,56,30.14,29.91,20,9,21,0.00
2013-4-12,32.5,27.3,22.7,28.0,24.3,20.7,100,89,79,30.06,29.97,16,7,18,0.08
2013-4-13,40.4,31.3,25.8,31.6,27.1,23.7,95,85,63,30.04,29.78,26,11,30,0.01
2013-4-14,28.0,25.8,24.1,26.7,24.2,22.5,96,94,84,29.81,29.66,33,21,36,0.00
2013-4-15,31.9,28.7,26.4,29.7,26.7,24.4,96,92,84,30.16,29.72,30,16,34,1.17
2013-4-16,35.4,27.2,20.9,28.0,23.9,19.2,94,88,71,30.47,30.15,12,5,13,0.00
2013-4-17,33.7,25.7,20.1,26.4,22.0,18.1,93,86,72,30.48,30.31,20,7,20,0.00
2013-4-18,33.2,25.6,16.9,23.7,19.2,13.4,90,77,61,30.32,30.10,25,11,27,0.00
2013-4-19,37.6,27.9,17.9,21.6,18.1,12.5,90,68,47,30.19,30.06,19,8,22,0.00
2013-4-20,32.1,25.8,14.8,28.3,19.3,9.7,91,76,59,30.22,30.08,26,12,27,0.00
2013-4-21,36.5,32.0,25.8,33.0,27.8,22.4,96,85,70,30.31,29.99,31,14,34,0.04
2013-4-22,32.0,26.7,20.3,23.6,19.7,14.0,92,75,59,30.50,30.30,23,12,26,0.00
2013-4-23,42.4,29.5,15.6,28.1,20.0,12.1,87,69,45,30.49,30.08,25,8,28,0.00
2013-4-24,36.3,30.7,23.4,30.8,24.2,15.4,96,78,48,30.17,30.00,38,13,41,0.00
2013-4-25,60.2,39.9,20.2,38.5,28.0,16.5,88,66,38,30.16,29.85,28,8,30,0.00
2013-4-26,72.5,53.8,33.8,38.1,33.4,27.8,89,53,21,30.08,29.93,17,5,18,0.00
2013-4-27,77.3,61.3,42.4,40.5,35.3,31.8,68,41,20,29.99,29.66,24,8,28,0.00
2013-4-28,63.7,56.4,39.4,39.8,32.3,19.6,60,41,26,29.90,29.60,31,13,33,0.00
2013-4-29,67.1,47.6,31.4,50.6,33.8,19.9,90,62,32,29.88,29.42,31,11,33,0.25
2013-4-30,47.4,40.9,28.1,44.2,31.5,21.2,91,69,53,30.21,29.48,41,18,43,0.01
2013-5-1,48.4,34.6,22.2,24.3,20.6,14.1,85,60,27,30.70,30.21,23,9,26,0.00
2013-5-2,52.9,37.9,22.9,27.0,22.3,18.2,85,57,28,30.77,30.54,17,5,19,0.00
2013-5-3,54.9,39.5,23.5,30.3,22.7,10.2,91,57,17,30.54,30.29,17,8,18,0.00
2013-5-4,58.6,43.5,23.6,32.2,25.5,19.2,90,54,24,30.39,30.29,21,7,23,0.00
2013-5-5,64.8,47.7,27.7,35.5,28.3,23.3,88,52,25,30.33,30.14,18,5,21,0.00
2013-5-6,70.7,55.6,35.9,38.4,31.3,27.1,76,43,23,30.16,29.99,15,4,17,0.00
2013-5-7,75.6,59.9,41.5,44.4,38.9,31.4,81,49,25,30.00,29.82,14,6,17,0.00
2013-5-8,68.7,56.9,44.8,45.6,41.6,32.6,81,58,41,30.17,29.87,25,10,29,0.00
2013-5-9,62.4,48.6,32.6,32.5,26.8,21.3,75,46,22,30.27,30.17,20,10,24,0.00
2013-5-10,69.9,52.6,35.6,42.1,30.5,21.3,75,45,26,30.26,30.00,37,14,39,0.00
2013-5-11,54.0,42.3,27.7,27.9,21.9,13.8,88,49,22,30.44,30.26,19,8,24,0.00
2013-5-12,70.5,51.4,29.6,32.4,24.8,14.9,69,39,19,30.29,29.88,19,8,21,0.00
2013-5-13,87.6,71.7,54.1,48.8,40.2,29.4,50,33,20,29.88,29.56,34,12,35,0.00
2013-5-14,73.3,65.9,56.0,56.8,45.0,36.0,89,49,28,29.79,29.41,48,15,52,0.05
2013-5-15,76.2,63.8,50.2,44.8,38.0,29.8,66,42,21,29.88,29.79,30,8,30,0.00
2013-5-16,60.7,55.1,52.2,53.3,46.1,35.0,92,74,40,29.90,29.83,26,10,30,0.36
2013-5-17,76.3,61.9,49.0,59.5,52.6,46.5,92,74,48,29.89,29.72,17,7,22,0.00
2013-5-18,74.4,62.7,54.1,60.5,57.2,52.8,97,84,52,29.81,29.67,24,7,28,1.55
2013-5-19,59.1,53.8,50.9,57.7,52.6,49.8,97,96,94,29.71,29.50,30,17,38,0.99
2013-5-20,56.6,51.4,46.4,55.8,50.1,45.2,97,95,91,29.71,29.53,39,21,45,0.43
2013-5-21,48.8,45.2,42.5,46.8,43.5,40.8,96,94,88,29.98,29.71,35,18,39,0.05
2013-5-22,67.3,56.2,44.1,47.5,41.4,28.7,91,62,25,30.15,29.98,28,12,32,0.00
2013-5-23,67.3,57.8,47.8,48.6,45.1,40.8,84,64,40,30.25,30.11,27,14,31,0.00
2013-5-24,61.4,54.7,48.8,53.1,46.1,36.3,86,73,61,30.14,29.94,33,17,36,0.00
2013-5-25,70.8,57.9,47.8,60.6,54.0,46.5,100,88,67,30.05,29.92,37,11,39,0.73
2013-5-26,70.5,59.5,51.2,61.9,55.4,50.0,96,87,70,29.99,29.80,32,12,35,0.15
2013-5-27,59.1,55.0,50.8,56.6,53.4,49.8,97,94,88,29.93,29.66,22,9,23,0.36
2013-5-28,73.1,62.2,51.7,58.0,54.2,50.6,97,77,51,29.69,29.60,20,6,21,0.01
2013-5-29,74.4,63.7,53.2,61.8,55.6,49.9,91,76,52,29.64,29.48,19,8,22,0.00
2013-5-30,72.6,62.2,57.5,64.3,58.8,56.1,96,89,63,29.51,29.25,26,13,31,1.61
2013-5-31,63.2,55.5,48.0,59.3,53.5,46.1,96,93,87,29.78,29.25,40,17,40,0.14
2013-6-1,62.6,52.7,45.4,48.0,44.3,39.4,95,75,51,30.12,29.78,37,16,37,0.02
2013-6-2,64.9,54.0,40.6,48.9,43.0,38.0,94,68,45,30.14,29.98,16,6,22,0.00
2013-6-3,52.7,49.0,45.8,48.7,44.4,39.0,92,85,68,29.99,29.81,33,17,35,0.22
2013-6-4,55.8,50.1,47.5,50.7,47.6,45.3,97,91,82,30.02,29.84,26,10,31,0.08
2013-6-5,61.1,54.4,47.7,53.1,50.3,46.9,97,86,69,30.14,30.01,18,8,20,0.01
2013-6-6,69.3,57.4,43.2,53.8,46.5,41.6,96,70,42,30.11,30.01,15,5,18,0.01
2013-6-7,74.4,62.2,48.6,57.2,51.0,45.6,91,69,42,30.02,29.69,15,6,17,0.00
2013-6-8,62.2,58.6,55.4,59.7,55.9,52.8,96,91,74,29.82,29.65,18,8,20,0.28
2013-6-9,75.0,63.0,53.1,58.8,53.6,48.7,98,75,41,29.88,29.72,16,4,18,0.01
2013-6-10,78.7,65.8,54.8,62.4,56.1,51.1,95,73,48,29.83,29.70,19,7,21,0.00
2013-6-11,77.4,67.4,57.7,56.7,52.6,46.6,85,61,35,29.90,29.80,18,6,19,0.04
2013-6-12,70.7,61.9,57.5,59.8,56.3,52.8,94,82,62,30.09,29.80,17,7,21,0.15
2013-6-13,74.5,65.0,53.0,58.5,54.5,50.0,92,70,53,30.14,29.85,23,9,27,0.00
2013-6-14,77.0,66.9,57.1,65.4,56.8,48.3,87,71,48,29.89,29.63,32,12,39,0.01
2013-6-15,75.0,64.5,51.8,52.9,48.7,43.0,81,59,35,29.91,29.84,30,9,30,0.00
2013-6-16,77.0,65.2,52.4,55.2,50.6,46.0,81,61,37,29.95,29.87,30,10,33,0.00
2013-6-17,70.8,59.5,51.1,60.2,53.6,48.4,96,82,54,30.08,29.95,25,6,29,0.04
2013-6-18,77.4,64.1,47.2,59.5,54.0,45.5,97,72,46,30.09,29.89,12,4,15,0.01
2013-6-19,84.5,71.6,58.7,65.9,57.8,53.4,84,64,40,29.90,29.69,27,12,32,0.00
2013-6-20,81.2,71.3,63.0,70.1,63.9,56.4,94,78,63,29.78,29.59,34,13,38,0.00
2013-6-21,71.7,66.0,61.7,66.0,62.9,59.8,97,90,75,29.93,29.77,27,8,32,0.02
2013-6-22,81.9,68.1,56.2,65.8,61.2,55.3,97,81,54,29.88,29.64,39,5,44,1.10
2013-6-23,73.5,64.5,57.3,58.3,55.8,50.9,97,76,49,29.75,29.60,27,12,30,0.01
2013-6-24,85.6,71.7,54.9,68.6,59.7,50.8,87,67,38,29.76,29.60,23,8,25,0.00
2013-6-25,85.2,73.4,64.8,75.2,67.5,61.3,96,83,64,29.62,29.51,20,10,22,0.00
2013-6-26,85.3,71.1,57.1,66.5,60.1,54.5,93,70,47,29.84,29.61,22,7,23,0.00
2013-6-27,81.1,74.1,57.9,59.8,55.0,50.5,82,53,35,29.98,29.84,28,12,32,0.00
2013-6-28,80.0,68.5,56.9,61.0,55.7,52.1,88,66,44,30.06,29.98,27,9,28,0.00
2013-6-29,78.4,67.5,55.2,61.7,56.8,50.8,86,70,50,30.06,30.00,20,6,20,0.00
2013-6-30,81.4,70.6,60.4,61.3,55.8,50.1,86,62,36,30.16,30.06,15,6,16,0.00
2013-7-1,81.0,70.6,57.2,57.8,53.6,50.0,80,57,37,30.23,30.13,15,4,18,0.00
2013-7-2,82.7,72.6,58.8,58.2,53.5,49.7,81,53,34,30.14,29.98,16,5,18,0.00
2013-7-3,86.5,72.8,58.0,59.4,54.7,51.7,82,56,32,29.98,29.72,22,9,24,0.00
2013-7-4,84.3,71.8,61.4,68.5,57.5,49.5,87,63,31,29.74,29.61,43,9,43,0.20
2013-7-5,85.2,72.2,59.2,66.5,61.6,55.6,94,71,48,29.76,29.67,24,6,25,0.01
2013-7-6,86.9,73.7,63.9,69.7,65.2,61.1,95,77,52,29.78,29.67,15,6,17,0.00
2013-7-7,81.4,69.6,57.0,61.9,58.0,51.8,91,68,37,29.95,29.78,13,4,13,0.00
2013-7-8,86.5,73.1,62.1,69.0,62.4,55.8,91,71,50,29.94,29.78,39,8,41,0.16
2013-7-9,77.0,65.4,56.7,65.9,59.2,52.3,96,81,59,30.08,29.76,24,9,28,0.10
2013-7-10,81.4,66.0,51.2,60.5,55.9,48.9,96,73,44,30.11,29.94,14,3,14,0.01
2013-7-11,91.0,76.0,60.3,73.1,65.1,56.4,88,70,47,29.95,29.58,25,10,26,0.00
2013-7-12,87.3,79.0,73.3,71.3,66.5,58.6,85,67,41,29.80,29.53,19,6,20,0.00
2013-7-13,89.8,77.9,63.7,68.1,63.6,59.5,93,64,39,29.91,29.77,28,7,30,0.00
2013-7-14,75.5,67.1,60.7,62.5,59.7,57.0,93,78,60,30.16,29.90,27,10,29,0.00
2013-7-15,83.4,78.1,64.1,71.3,68.2,58.8,83,72,62,30.14,29.88,24,12,26,0.00
2013-7-16,90.0,76.1,65.8,70.6,64.3,61.0,86,68,44,30.10,29.88,27,9,27,0.00
2013-7-17,90.4,75.9,63.6,70.7,65.0,58.7,90,71,45,30.11,29.90,19,9,24,0.00
2013-7-18,88.8,77.1,67.4,71.5,66.4,55.8,89,71,45,29.90,29.73,26,10,30,0.00
2013-7-19,84.8,70.8,55.0,60.2,56.0,52.7,94,63,35,29.93,29.81,24,9,30,0.00
2013-7-20,70.9,63.2,57.0,58.7,56.4,54.1,94,79,61,29.97,29.87,18,7,22,0.03
2013-7-21,86.6,67.5,54.1,66.8,59.2,51.6,92,77,45,29.91,29.56,27,10,31,0.41
2013-7-22,75.1,65.1,57.6,60.9,56.8,53.5,94,76,50,29.95,29.71,19,8,20,0.01
2013-7-23,78.1,64.5,53.7,59.5,55.6,51.3,93,74,48,30.05,29.92,13,4,15,0.00
2013-7-24,82.2,69.7,57.4,62.0,57.5,53.4,91,67,40,30.04,29.93,23,6,23,0.00
2013-7-25,73.5,64.6,53.9,61.1,54.1,47.5,93,70,48,30.10,29.91,28,10,32,0.17
2013-7-26,70.8,58.6,48.0,52.5,47.2,42.1,98,69,40,30.28,30.10,18,8,20,0.00
2013-7-27,72.4,58.5,41.9,48.6,43.9,38.7,93,62,35,30.25,30.05,17,5,19,0.00
2013-7-28,74.8,61.1,46.1,50.6,45.7,42.3,88,60,37,30.06,29.92,19,8,21,0.00
2013-7-29,71.6,62.6,53.9,62.5,54.5,46.4,94,75,61,29.98,29.88,20,8,21,0.05
2013-7-30,73.8,62.5,50.1,62.6,56.8,49.2,98,83,56,30.12,29.98,11,4,13,0.02
2013-7-31,78.3,66.8,55.2,58.1,53.0,46.8,99,65,37,30.14,30.00,16,5,22,0.00
2013-8-1,80.0,65.8,50.7,55.8,51.6,47.8,92,63,36,30.05,29.91,15,5,16,0.00
2013-8-2,75.3,65.2,53.5,55.0,50.6,47.2,86,61,39,30.07,29.92,17,4,17,0.00
2013-8-3,77.8,66.7,57.5,57.4,53.5,49.4,84,64,45,30.16,30.07,18,9,22,0.00
2013-8-4,74.5,64.9,59.1,62.7,57.9,52.4,92,79,64,30.15,29.89,25,8,25,0.00
2013-8-5,80.1,67.0,55.4,59.6,56.7,53.2,97,73,42,29.92,29.73,15,5,18,0.00
2013-8-6,78.3,65.3,55.4,62.4,57.0,52.7,93,75,48,29.89,29.68,30,9,33,0.02
2013-8-7,74.2,62.9,55.9,55.4,53.2,49.3,93,73,45,30.02,29.89,23,6,25,0.00
2013-8-8,75.1,64.5,55.3,54.9,51.3,44.8,92,66,37,30.07,30.00,17,6,19,0.02
2013-8-9,73.7,61.0,48.8,53.7,48.9,45.7,93,67,41,30.17,30.07,21,7,23,0.00
2013-8-10,77.9,63.2,48.1,60.8,52.9,46.1,94,72,44,30.19,30.00,13,5,18,0.17
2013-8-11,78.8,66.4,55.1,60.0,54.5,49.5,96,69,39,30.09,30.01,11,4,13,0.01
2013-8-12,81.9,67.7,54.0,55.1,50.2,43.0,86,57,28,30.11,30.05,15,4,15,0.00
2013-8-13,78.3,65.3,52.1,54.4,50.6,47.6,89,62,38,30.19,30.08,16,8,18,0.00
2013-8-14,79.1,65.5,56.0,59.7,52.4,46.0,76,63,43,30.13,29.97,13,7,15,0.00
2013-8-15,79.3,66.2,58.0,62.1,56.4,53.2,93,73,42,30.04,29.98,18,6,20,0.01
2013-8-16,80.3,68.8,55.7,58.9,56.2,53.1,92,66,44,30.04,29.95,21,9,24,0.00
2013-8-17,89.6,71.0,55.8,67.4,61.1,54.3,96,74,42,29.97,29.79,22,10,25,0.00
2013-8-18,88.1,74.6,64.3,69.7,63.8,53.3,95,72,36,29.87,29.78,25,8,28,0.01
2013-8-19,96.0,77.5,57.5,67.0,57.8,52.1,94,58,25,29.85,29.68,19,5,19,0.00
2013-8-20,99.8,81.0,65.8,65.9,57.7,49.8,73,48,20,29.74,29.63,20,7,25,0.00
2013-8-21,83.8,71.2,59.4,60.5,53.7,48.7,86,57,31,30.06,29.74,18,9,23,0.02
2013-8-22,83.2,71.4,59.8,52.7,48.6,42.1,68,46,29,30.16,30.00,17,8,19,0.00
2013-8-23,88.5,74.1,60.8,68.6,61.4,50.1,86,66,47,30.02,29.70,28,12,30,0.00
2013-8-24,92.0,80.2,69.9,71.4,66.6,62.2,92,66,38,29.73,29.64,17,7,18,0.00
2013-8-25,95.9,81.3,64.1,67.1,61.5,56.0,90,55,28,29.86,29.72,17,5,18,0.00
2013-8-26,83.7,74.9,70.8,73.1,66.2,59.2,89,75,54,29.84,29.76,17,7,18,0.02
2013-8-27,93.8,74.7,62.9,72.5,65.5,59.3,90,75,38,29.90,29.78,19,5,24,0.04
2013-8-28,91.6,85.1,70.3,68.6,64.9,63.0,90,52,41,29.90,29.81,15,5,18,0.00
2013-8-29,85.7,74.9,64.6,68.6,66.1,63.4,97,76,52,29.91,29.74,42,8,51,0.96
2013-8-30,89.2,74.5,63.8,70.1,65.7,59.5,97,76,47,29.95,29.73,41,7,43,0.52
2013-8-31,78.2,70.5,59.0,65.1,57.6,51.9,84,65,42,29.90,29.72,28,10,31,0.00
2013-9-1,71.6,61.9,53.0,59.4,54.6,49.9,97,78,57,30.05,29.90,16,6,19,0.00
2013-9-2,81.8,65.6,49.5,59.0,53.5,47.0,93,67,43,30.08,29.91,15,8,17,0.00
2013-9-3,87.0,71.6,59.1,65.3,58.7,54.3,85,66,36,29.95,29.89,12,5,15,0.00
2013-9-4,80.7,68.8,56.2,60.7,54.9,47.3,89,63,43,30.11,29.95,19,10,22,0.00
2013-9-5,89.1,73.7,59.0,67.5,58.6,47.8,71,60,44,30.09,29.88,16,8,20,0.00
2013-9-6,92.0,78.0,65.2,70.3,65.9,62.3,92,69,43,29.90,29.79,15,4,16,0.00
2013-9-7,76.9,69.9,63.1,67.3,62.5,58.7,91,78,61,30.02,29.83,22,9,25,0.10
2013-9-8,75.7,67.9,61.9,67.5,63.5,60.2,96,86,73,29.99,29.71,26,6,31,0.22
2013-9-9,76.0,67.8,58.6,66.1,62.8,55.3,97,85,59,29.79,29.59,19,7,21,1.51
2013-9-10,80.5,66.0,54.1,60.7,55.9,51.8,96,73,38,29.98,29.78,21,7,22,0.00
2013-9-11,76.9,65.3,54.4,57.8,50.7,44.0,88,62,33,30.20,29.98,17,5,19,0.00
2013-9-12,74.0,60.1,44.6,52.2,47.6,42.1,93,66,37,30.33,30.20,12,4,14,0.00
2013-9-13,79.7,63.6,50.0,56.3,50.5,46.9,90,66,39,30.20,29.84,22,10,26,0.00
2013-9-14,64.1,60.0,56.5,61.8,55.3,48.3,97,85,58,30.02,29.74,21,6,24,0.87
2013-9-15,64.1,53.6,42.7,52.1,45.6,41.1,95,76,48,30.30,30.02,22,8,26,0.00
2013-9-16,68.9,56.0,44.5,55.3,49.2,42.2,96,79,53,30.28,29.94,30,13,32,0.00
2013-9-17,76.0,63.4,52.4,64.3,57.0,50.2,94,81,64,29.94,29.64,19,11,24,0.00
2013-9-18,74.9,65.2,59.5,66.6,62.1,57.7,97,90,73,29.70,29.51,21,6,22,0.04
2013-9-19,64.1,53.2,48.1,58.4,49.0,44.4,92,86,76,30.05,29.60,31,13,35,0.00
2013-9-20,63.1,50.7,37.5,46.4,41.0,35.9,95,72,42,30.08,29.98,23,8,25,0.00
2013-9-21,71.0,53.9,38.1,48.9,43.3,36.0,93,71,40,29.99,29.71,24,11,26,0.00
2013-9-22,81.5,63.9,47.9,64.2,53.8,44.7,91,71,51,29.71,29.39,27,11,28,0.01
2013-9-23,72.8,61.9,53.4,61.3,55.9,52.2,96,82,58,29.80,29.39,33,8,33,0.22
2013-9-24,73.1,58.5,46.9,52.5,47.6,41.7,97,71,35,29.94,29.80,11,4,12,0.01
2013-9-25,76.2,64.4,52.8,56.5,52.2,44.8,82,65,44,29.80,29.51,32,13,36,0.00
2013-9-26,66.9,59.0,46.1,57.7,52.3,41.7,93,79,60,29.85,29.44,25,11,26,0.02
2013-9-27,54.7,48.7,42.4,47.8,44.6,39.5,95,86,74,29.89,29.79,17,7,18,0.23
2013-9-28,63.6,51.5,43.3,45.3,42.1,37.5,95,73,41,29.86,29.76,25,7,28,0.01
2013-9-29,72.1,56.7,42.7,52.0,45.2,38.5,86,67,42,29.82,29.52,22,7,24,0.00
2013-9-30,74.2,59.1,48.0,52.6,46.2,39.5,91,64,40,29.63,29.42,41,6,43,0.03
2013-10-1,65.7,54.0,42.7,46.8,37.6,33.3,87,56,31,29.93,29.63,28,10,32,0.00
2013-10-2,65.6,54.3,42.4,44.0,39.6,35.5,80,59,38,30.00,29.91,23,8,27,0.00
2013-10-3,57.1,50.4,45.1,43.0,38.6,34.5,89,65,44,30.19,29.96,22,9,25,0.00
2013-10-4,46.0,36.4,32.1,39.2,34.0,30.8,96,91,73,30.28,30.12,41,19,44,0.71
2013-10-5,42.2,35.9,32.6,37.0,33.2,30.1,95,90,78,30.13,30.01,43,19,44,1.16
2013-10-6,62.9,43.6,26.0,44.7,35.0,24.3,94,74,46,30.11,29.97,18,6,19,0.00
2013-10-7,68.9,52.1,38.8,51.4,43.3,35.8,91,74,44,29.99,29.66,19,6,21,0.00
2013-10-8,69.1,53.4,39.2,46.9,41.8,36.3,95,68,34,29.85,29.56,25,7,25,0.00
2013-10-9,67.2,52.7,39.9,45.8,38.1,34.7,86,60,31,30.04,29.85,17,4,17,0.00
2013-10-10,65.6,54.4,38.6,53.6,45.2,34.1,92,72,50,29.98,29.60,12,5,14,0.01
2013-10-11,62.7,53.8,43.8,58.0,51.5,41.8,98,92,79,29.65,29.27,49,16,52,0.68
2013-10-12,53.2,44.8,39.1,41.9,34.4,29.7,93,68,43,30.25,29.56,41,16,46,0.01
2013-10-13,53.4,41.2,28.8,39.9,34.9,25.8,95,79,55,30.39,30.25,22,5,23,0.06
2013-10-14,44.5,41.7,36.7,42.5,39.1,34.9,95,90,80,30.29,30.03,30,16,37,0.95
2013-10-15,47.4,40.0,34.7,38.3,35.5,31.1,95,85,61,30.24,30.13,28,12,32,0.22
2013-10-16,58.7,42.8,30.8,40.8,34.0,27.1,87,73,35,30.12,29.89,16,5,18,0.00
2013-10-17,46.4,39.5,32.8,38.5,32.0,26.7,93,75,55,30.08,29.94,28,10,28,0.03
2013-10-18,45.9,37.9,29.6,38.0,32.7,25.6,95,82,58,30.07,29.84,22,9,25,0.06
2013-10-19,46.6,39.2,32.6,39.1,34.1,28.1,94,82,68,29.88,29.65,12,5,13,0.04
2013-10-20,44.6,36.9,30.3,42.4,33.9,27.7,95,89,76,30.07,29.61,30,11,33,0.05
2013-10-21,37.9,31.6,24.4,30.6,27.4,22.0,95,85,63,30.07,29.99,8,2,9,0.00
2013-10-22,35.0,32.2,29.9,31.4,30.0,28.5,95,92,82,30.19,30.03,11,3,11,0.09
2013-10-23,38.6,32.8,26.8,31.2,29.2,23.5,96,87,67,30.34,30.10,17,5,18,0.07
2013-10-24,39.4,30.4,22.6,32.2,26.0,20.2,93,84,68,30.44,30.33,17,5,17,0.00
2013-10-25,59.6,41.9,25.6,44.2,31.5,23.3,93,70,41,30.33,29.96,32,12,38,0.00
2013-10-26,45.4,35.6,23.3,29.8,26.8,20.3,91,71,49,30.30,29.93,20,7,25,0.00
2013-10-27,45.6,36.5,25.6,35.6,29.0,19.8,89,74,59,30.40,29.84,27,10,31,0.00
2013-10-28,31.6,24.8,19.7,21.6,18.5,16.3,88,77,62,30.61,30.40,23,9,24,0.00
2013-10-29,33.2,28.0,22.1,27.5,22.5,18.3,85,80,74,30.54,30.17,12,5,14,0.00
2013-10-30,37.6,33.2,28.6,33.2,30.0,25.8,92,88,82,30.17,29.74,12,4,15,0.00
2013-10-31,43.2,34.9,26.3,37.1,31.1,24.6,95,86,73,29.74,29.58,24,8,26,0.00
2013-11-1,41.6,37.5,30.7,37.4,33.0,27.1,91,84,72,30.06,29.63,31,11,33,0.02
2013-11-2,53.5,38.8,26.3,35.8,28.9,23.0,90,70,36,30.13,29.81,16,5,17,0.00
2013-11-3,43.7,39.2,31.7,35.1,31.6,26.2,82,74,68,29.81,29.55,22,8,24,0.00
2013-11-4,39.1,31.9,21.6,27.6,20.9,13.3,83,65,41,30.15,29.72,32,15,33,0.00
2013-11-5,38.1,25.5,16.6,22.1,17.6,12.4,85,72,51,30.31,30.15,13,6,15,0.00
2013-11-6,44.1,30.0,19.4,27.8,21.9,16.0,92,75,36,30.32,30.14,14,5,15,0.00
2013-11-7,44.9,30.3,17.4,29.0,21.2,14.4,90,71,45,30.35,30.06,20,7,22,0.00
2013-11-8,44.0,37.5,29.8,37.9,31.5,22.5,92,79,67,30.06,29.59,34,11,39,0.00
2013-11-9,38.8,32.0,21.0,33.6,24.7,17.8,88,75,61,30.37,29.83,38,15,40,0.00
2013-11-10,40.2,25.8,17.3,29.9,16.9,-2.0,92,70,41,30.50,30.19,27,10,29,0.00
2013-11-11,20.7,12.7,2.8,2.5,-0.0,-3.5,83,58,35,30.86,30.49,22,6,22,0.00
2013-11-12,45.6,26.0,10.9,29.0,17.9,2.4,88,72,51,30.85,30.22,19,7,19,0.00
2013-11-13,51.8,40.7,29.3,38.2,32.8,26.2,89,74,55,30.22,29.90,20,7,21,0.00
2013-11-14,48.3,38.5,27.2,36.5,31.8,24.3,93,78,54,29.93,29.79,24,7,29,0.00
2013-11-15,53.2,35.1,22.2,33.8,27.8,20.5,94,77,43,29.81,29.42,14,6,16,0.00
2013-11-16,43.2,33.8,23.1,32.3,27.9,19.6,92,80,61,29.45,29.31,17,3,17,0.02
2013-11-17,34.3,30.3,27.3,32.8,28.2,24.3,95,92,87,30.05,29.44,19,6,20,0.02
2013-11-18,40.9,29.2,16.7,30.0,24.2,14.8,94,82,64,30.19,30.01,18,7,19,0.00
2013-11-19,37.7,32.3,28.6,31.1,27.9,25.2,92,84,75,30.01,29.59,21,7,21,0.00
2013-11-20,32.8,18.9,10.0,29.1,14.5,5.8,92,83,71,30.47,29.69,26,14,27,0.00
2013-11-21,10.1,5.2,-2.2,8.1,0.2,-5.8,92,79,69,30.79,30.46,25,9,27,0.00
2013-11-22,17.5,7.1,-5.4,12.9,1.6,-9.5,84,78,69,31.01,30.62,26,9,27,0.00
2013-11-23,15.6,3.1,-10.4,9.0,-2.0,-14.4,85,79,64,31.05,30.56,18,6,19,0.00
2013-11-24,42.7,27.0,10.9,29.2,19.7,7.9,89,75,54,30.56,29.98,25,8,26,0.00
2013-11-25,33.4,28.1,20.4,26.9,22.2,14.6,92,78,68,30.39,30.05,31,14,31,0.00
2013-11-26,20.7,13.9,8.3,14.9,8.2,3.9,89,78,60,30.62,30.39,26,8,29,0.00
2013-11-27,34.2,21.2,7.8,22.9,15.8,4.0,86,80,61,30.47,30.03,33,14,38,0.00
2013-11-28,23.9,19.9,15.2,19.5,14.5,11.8,87,79,74,30.49,30.31,22,8,26,0.00
2013-11-29,38.3,23.8,13.9,26.7,19.0,10.9,91,83,61,30.37,30.07,17,6,19,0.00
2013-11-30,36.3,29.9,21.1,29.4,25.8,18.2,94,85,74,30.25,30.12,11,4,13,0.00
2013-12-1,40.5,28.6,20.8,32.8,25.3,18.7,92,88,72,30.23,29.74,14,8,17,0.02
2013-12-2,31.2,25.7,18.8,29.7,23.8,16.4,95,92,89,29.87,29.57,13,1,14,0.02
2013-12-3,18.8,12.3,7.6,16.6,9.5,4.8,91,88,86,30.14,29.84,11,0,11,0.07
2013-12-4,7.6,4.6,-2.8,4.6,1.5,-6.9,88,86,82,30.23,30.09,27,11,31,0.20
2013-12-5,-2.8,-6.2,-9.2,-7.1,-10.9,-13.7,82,79,75,30.60,30.22,21,8,23,0.22
2013-12-6,-7.9,-12.2,-16.1,-13.1,-16.9,-21.5,82,79,74,30.85,30.60,9,4,11,0.00
2013-12-7,-9.3,-16.8,-23.2,-15.8,-21.9,-27.8,92,77,71,30.86,30.62,7,3,7,0.00
2013-12-8,-2.5,-8.4,-16.0,-7.7,-13.0,-20.1,83,80,73,30.62,30.24,9,4,10,0.00
2013-12-9,14.3,-3.0,-16.1,10.3,-7.5,-20.2,92,81,73,30.32,29.89,33,7,39,0.00
2013-12-10,16.8,1.5,-9.3,14.6,-3.2,-14.5,92,80,71,30.60,30.10,25,6,31,0.00
2013-12-11,15.3,-2.8,-18.5,10.1,-7.4,-22.8,87,80,75,30.65,30.34,12,4,16,0.00
2013-12-12,26.9,15.6,9.4,21.0,11.7,5.8,92,84,77,30.40,30.18,16,3,18,0.05
2013-12-13,10.1,-1.8,-4.4,7.0,-5.6,-8.6,88,83,81,30.50,30.19,18,6,19,0.00
2013-12-14,9.4,2.9,-4.0,4.5,-1.1,-8.1,94,83,78,30.49,30.26,11,4,12,0.00
2013-12-15,6.0,2.7,-0.8,4.6,-0.9,-4.8,98,84,82,30.28,29.99,14,8,16,0.00
2013-12-16,34.8,26.2,4.9,28.7,21.5,1.9,95,83,74,30.13,29.99,28,9,29,0.06
2013-12-17,31.4,23.4,16.5,25.6,17.4,11.7,84,78,69,30.26,29.81,27,6,32,0.00
2013-12-18,40.3,27.3,7.6,30.0,21.7,3.8,90,79,63,30.13,29.69,30,7,31,0.02
2013-12-19,7.6,-0.1,-6.7,3.6,-4.1,-10.3,92,83,79,30.38,30.13,16,5,20,0.00
2013-12-20,2.4,-3.9,-12.5,-1.6,-8.0,-16.4,85,82,78,30.35,29.96,9,2,10,0.23
2013-12-21,-1.0,-4.8,-9.5,-5.1,-8.8,-13.2,95,83,79,30.35,29.99,9,4,9,0.00
2013-12-22,-3.8,-8.8,-18.6,-7.7,-13.3,-22.9,83,80,73,30.73,30.35,8,3,8,0.00
2013-12-23,-1.7,-15.1,-23.6,-5.6,-19.3,-28.2,92,80,77,30.81,30.37,15,4,17,0.00
2013-12-24,30.1,17.1,-1.3,28.3,13.6,-5.6,94,86,82,30.37,30.14,23,7,24,0.11
2013-12-25,31.1,26.4,21.8,29.7,22.5,18.1,95,85,78,30.30,30.08,27,7,29,0.00
2013-12-26,29.9,25.5,18.5,26.5,22.4,16.6,94,88,80,30.16,30.02,16,3,19,0.00
2013-12-27,42.2,33.9,21.1,34.3,29.3,18.3,92,83,72,30.07,29.84,12,2,18,0.21
2013-12-28,35.2,12.7,-7.9,28.8,8.2,-12.4,92,82,76,30.62,29.72,36,11,40,0.01
2013-12-29,6.2,-2.9,-11.0,2.9,-8.2,-16.5,86,77,71,30.64,30.17,12,4,14,0.00
2013-12-30,7.7,2.6,-3.7,4.9,-1.2,-8.1,88,84,78,30.42,30.12,19,5,21,0.00
2013-12-31,0.5,-6.5,-11.1,-3.3,-11.0,-15.5,92,80,74,30.53,30.33,13,5,15,0.00
2014-1-1,-0.7,-6.2,-9.2,-6.1,-10.6,-13.4,92,81,76,30.64,30.48,11,4,13,0.00
2014-1-2,5.7,-5.6,-17.2,2.9,-9.4,-21.4,88,83,79,30.63,30.07,18,5,20,0.00